createdAt,value
2023-05-24T00:00:56.801Z,100585.25
2023-05-24T00:03:25.114Z,100581.16
2023-05-24T00:05:54.961Z,100594.13
2023-05-24T00:08:23.140Z,100585.66
2023-05-24T00:10:51.621Z,100591.63
2023-05-24T00:13:20.683Z,100588.91
2023-05-24T00:15:49.257Z,100597.34
2023-05-24T00:18:19.034Z,100597.13
2023-05-24T00:20:47.909Z,100596.28
2023-05-24T00:23:18.208Z,100597.72
2023-05-24T00:25:46.614Z,100602.81
2023-05-24T00:28:14.982Z,100594.97
2023-05-24T00:30:43.729Z,100597.25
2023-05-24T00:33:13.918Z,100598.84
2023-05-24T00:35:42.719Z,100600.28
2023-05-24T00:38:11.290Z,100607.06
2023-05-24T00:40:41.344Z,100615.66
2023-05-24T00:43:09.901Z,100613.38
2023-05-24T00:45:38.405Z,100603.91
2023-05-24T00:48:07.077Z,100602.66
2023-05-24T00:50:36.425Z,100611.88
2023-05-24T00:53:05.577Z,100607.94
2023-05-24T00:55:36.792Z,100609.19
2023-05-24T00:58:07.155Z,100613.91
2023-05-24T01:00:36.062Z,100604.59
2023-05-24T01:03:05.459Z,100609.31
2023-05-24T01:05:34.019Z,100602.09
2023-05-24T01:08:12.199Z,100607.81
2023-05-24T01:10:52.625Z,100606.34
2023-05-24T01:13:29.305Z,100606.69
2023-05-24T01:16:02.954Z,100603.38
2023-05-24T01:18:35.925Z,100613.84
2023-05-24T01:21:21.369Z,100609.72
2023-05-24T01:24:03.052Z,100616.25
2023-05-24T01:26:44.825Z,100615.63
2023-05-24T01:29:16.442Z,100606.78
2023-05-24T01:31:45.526Z,100608.63
2023-05-24T01:34:14.794Z,100604.28
2023-05-24T01:36:43.059Z,100603.69
2023-05-24T01:39:12.261Z,100605.91
2023-05-24T01:41:45.243Z,100609.59
2023-05-24T01:44:27.137Z,100609.78
2023-05-24T01:47:03.600Z,100617.16
2023-05-24T01:49:35.834Z,100628.22
2023-05-24T01:52:07.857Z,100618.97
2023-05-24T01:54:40.960Z,100629.00
2023-05-24T01:57:11.627Z,100629.19
2023-05-24T01:59:43.688Z,100622.38
2023-05-24T02:02:12.882Z,100630.41
2023-05-24T02:04:41.764Z,100634.47
2023-05-24T02:07:11.177Z,100635.06
2023-05-24T02:09:43.525Z,100639.13
2023-05-24T02:12:13.082Z,100635.16
2023-05-24T02:14:43.089Z,100640.50
2023-05-24T02:17:11.985Z,100641.34
2023-05-24T02:19:40.466Z,100639.69
2023-05-24T02:22:09.302Z,100637.84
2023-05-24T02:24:44.703Z,100643.19
2023-05-24T02:27:13.980Z,100646.69
2023-05-24T02:29:43.835Z,100648.34
2023-05-24T02:32:13.177Z,100646.50
2023-05-24T02:34:44.587Z,100651.66
2023-05-24T02:37:15.379Z,100643.00
2023-05-24T02:39:43.695Z,100642.16
2023-05-24T02:42:12.406Z,100645.84
2023-05-24T02:44:42.625Z,100641.34
2023-05-24T02:47:12.662Z,100644.09
2023-05-24T02:49:40.833Z,100637.13
2023-05-24T02:52:10.511Z,100631.72
2023-05-24T02:54:38.696Z,100637.66
2023-05-24T02:57:08.189Z,100644.41
2023-05-24T02:59:36.947Z,100643.94
2023-05-24T03:02:05.483Z,100648.59
2023-05-24T03:04:35.591Z,100644.41
2023-05-24T03:07:04.195Z,100643.03
2023-05-24T03:09:32.486Z,100643.34
2023-05-24T03:12:00.741Z,100636.19
2023-05-24T03:14:29.050Z,100639.53
2023-05-24T03:16:57.209Z,100636.91
2023-05-24T03:19:25.662Z,100634.88
2023-05-24T03:21:55.299Z,100642.78
2023-05-24T03:24:23.463Z,100643.00
2023-05-24T03:26:51.644Z,100646.72
2023-05-24T03:29:19.834Z,100641.75
2023-05-24T03:31:48.265Z,100641.97
2023-05-24T03:34:18.324Z,100639.69
2023-05-24T03:36:46.618Z,100643.63
2023-05-24T03:39:17.069Z,100651.41
2023-05-24T03:41:45.348Z,100643.97
2023-05-24T03:44:14.015Z,100637.75
2023-05-24T03:46:42.338Z,100643.75
2023-05-24T03:49:10.590Z,100641.63
2023-05-24T03:51:38.755Z,100640.34
2023-05-24T03:54:07.342Z,100637.66
2023-05-24T03:56:48.619Z,100633.94
2023-05-24T03:59:16.971Z,100639.28
2023-05-24T04:01:45.271Z,100638.88
2023-05-24T04:04:13.456Z,100646.94
2023-05-24T04:06:42.074Z,100644.00
2023-05-24T04:09:10.307Z,100643.59
2023-05-24T04:11:40.373Z,100645.03
2023-05-24T04:14:08.929Z,100644.59
2023-05-24T04:16:39.903Z,100642.53
2023-05-24T04:19:08.175Z,100641.03
2023-05-24T04:21:36.763Z,100652.00
2023-05-24T04:24:05.356Z,100646.19
2023-05-24T04:26:35.209Z,100645.97
2023-05-24T04:29:05.130Z,100651.09
2023-05-24T04:31:34.442Z,100650.25
2023-05-24T04:34:04.508Z,100651.41
2023-05-24T04:36:35.656Z,100648.41
2023-05-24T04:39:05.260Z,100654.75
2023-05-24T04:41:35.577Z,100667.09
2023-05-24T04:44:05.220Z,100658.38
2023-05-24T04:46:36.191Z,100664.31
2023-05-24T04:49:05.809Z,100662.19
2023-05-24T04:51:34.833Z,100660.06
2023-05-24T04:54:08.770Z,100669.47
2023-05-24T04:56:38.517Z,100668.63
2023-05-24T04:59:10.055Z,100679.16
2023-05-24T05:01:38.309Z,100675.25
2023-05-24T05:04:07.537Z,100672.34
2023-05-24T05:06:38.897Z,100683.22
2023-05-24T05:09:09.565Z,100692.22
2023-05-24T05:11:38.163Z,100698.06
2023-05-24T05:14:09.923Z,100699.81
2023-05-24T05:16:38.819Z,100694.69
2023-05-24T05:19:07.250Z,100701.22
2023-05-24T05:21:36.578Z,100695.09
2023-05-24T05:24:04.924Z,100701.81
2023-05-24T05:26:33.399Z,100705.63
2023-05-24T05:29:01.628Z,100703.59
2023-05-24T05:31:31.780Z,100697.41
2023-05-24T05:34:00.676Z,100707.19
2023-05-24T05:36:29.284Z,100708.28
2023-05-24T05:38:58.013Z,100702.94
2023-05-24T05:41:26.439Z,100710.34
2023-05-24T05:43:54.681Z,100714.69
2023-05-24T05:46:23.083Z,100706.75
2023-05-24T05:48:52.673Z,100709.13
2023-05-24T05:51:21.309Z,100707.56
2023-05-24T05:53:49.541Z,100704.66
2023-05-24T05:56:18.328Z,100716.50
2023-05-24T05:58:46.576Z,100708.13
2023-05-24T06:01:14.909Z,100706.53
2023-05-24T06:03:43.409Z,100711.44
2023-05-24T06:06:13.310Z,100722.25
2023-05-24T06:08:41.929Z,100718.44
2023-05-24T06:11:10.233Z,100714.59
2023-05-24T06:13:38.470Z,100712.94
2023-05-24T06:16:08.625Z,100717.75
2023-05-24T06:18:37.048Z,100715.03
2023-05-24T06:21:05.627Z,100717.78
2023-05-24T06:23:35.198Z,100720.97
2023-05-24T06:26:03.547Z,100710.84
2023-05-24T06:28:31.901Z,100713.16
2023-05-24T06:31:00.242Z,100715.50
2023-05-24T06:33:30.124Z,100721.38
2023-05-24T06:35:58.376Z,100718.09
2023-05-24T06:38:27.977Z,100712.63
2023-05-24T06:40:57.650Z,100714.69
2023-05-24T06:43:25.774Z,100720.56
2023-05-24T06:45:54.036Z,100726.91
2023-05-24T06:48:22.815Z,100731.41
2023-05-24T06:50:51.170Z,100735.34
2023-05-24T06:53:19.824Z,100744.50
2023-05-24T06:55:47.980Z,100748.13
2023-05-24T06:58:18.530Z,100753.13
2023-05-24T07:00:47.700Z,100745.09
2023-05-24T07:03:15.948Z,100747.59
2023-05-24T07:05:44.048Z,100752.53
2023-05-24T07:08:12.254Z,100749.38
2023-05-24T07:10:40.610Z,100746.44
2023-05-24T07:13:09.562Z,100739.97
2023-05-24T07:15:39.383Z,100737.56
2023-05-24T07:18:07.881Z,100737.59
2023-05-24T07:20:36.271Z,100736.56
2023-05-24T07:23:05.045Z,100732.22
2023-05-24T07:25:35.930Z,100733.03
2023-05-24T07:28:04.120Z,100730.03
2023-05-24T07:30:46.501Z,100736.34
2023-05-24T07:33:16.936Z,100734.16
2023-05-24T07:35:51.407Z,100739.09
2023-05-24T07:38:19.874Z,100742.13
2023-05-24T07:40:48.276Z,100739.69
2023-05-24T07:43:17.224Z,100746.50
2023-05-24T07:45:45.628Z,100739.97
2023-05-24T07:48:15.945Z,100743.53
2023-05-24T07:50:48.878Z,100740.53
2023-05-24T07:53:17.809Z,100737.25
2023-05-24T07:55:46.681Z,100740.00
2023-05-24T07:58:15.234Z,100743.56
2023-05-24T08:00:44.140Z,100735.91
2023-05-24T08:03:14.868Z,100742.41
2023-05-24T08:05:44.880Z,100745.72
2023-05-24T08:08:14.382Z,100746.78
2023-05-24T08:10:42.607Z,100745.69
2023-05-24T08:13:11.049Z,100750.31
2023-05-24T08:15:39.238Z,100744.56
2023-05-24T08:18:07.814Z,100733.91
2023-05-24T08:20:36.721Z,100750.28
2023-05-24T08:23:06.517Z,100746.22
2023-05-24T08:25:34.689Z,100738.25
2023-05-24T08:28:03.537Z,100750.25
2023-05-24T08:30:32.424Z,100744.25
2023-05-24T08:33:00.879Z,100746.66
2023-05-24T08:35:29.402Z,100746.94
2023-05-24T08:37:58.027Z,100742.00
2023-05-24T08:40:27.984Z,100748.28
2023-05-24T08:43:01.336Z,100752.94
2023-05-24T08:45:31.911Z,100745.31
2023-05-24T08:48:02.371Z,100751.34
2023-05-24T08:50:33.638Z,100746.38
2023-05-24T08:53:02.947Z,100746.59
2023-05-24T08:55:33.630Z,100748.72
2023-05-24T08:58:02.242Z,100739.13
2023-05-24T09:00:30.598Z,100742.34
2023-05-24T09:03:00.269Z,100745.56
2023-05-24T09:05:30.367Z,100743.06
2023-05-24T09:08:02.226Z,100746.84
2023-05-24T09:10:45.020Z,100738.81
2023-05-24T09:13:21.112Z,100742.84
2023-05-24T09:15:49.402Z,100746.84
2023-05-24T09:18:17.825Z,100748.69
2023-05-24T09:20:46.579Z,100751.06
2023-05-24T09:23:29.544Z,100748.91
2023-05-24T09:25:59.655Z,100746.25
2023-05-24T09:28:28.416Z,100736.66
2023-05-24T09:31:02.810Z,100735.81
2023-05-24T09:33:34.963Z,100742.88
2023-05-24T09:36:05.105Z,100733.50
2023-05-24T09:38:33.974Z,100734.03
2023-05-24T09:41:10.512Z,100730.28
2023-05-24T09:43:49.548Z,100736.34
2023-05-24T09:46:23.584Z,100733.13
2023-05-24T09:48:59.293Z,100737.13
2023-05-24T09:51:28.817Z,100735.72
2023-05-24T09:53:58.859Z,100733.16
2023-05-24T09:56:29.235Z,100741.31
2023-05-24T09:58:58.179Z,100729.56
2023-05-24T10:01:27.035Z,100738.59
2023-05-24T10:03:56.300Z,100738.28
2023-05-24T10:06:25.788Z,100730.28
2023-05-24T10:08:55.841Z,100738.28
2023-05-24T10:11:24.438Z,100718.06
2023-05-24T10:13:54.859Z,100723.59
2023-05-24T10:16:23.166Z,100725.78
2023-05-24T10:18:51.841Z,100726.50
2023-05-24T10:21:23.748Z,100725.00
2023-05-24T10:23:54.558Z,100721.25
2023-05-24T10:26:26.261Z,100712.03
2023-05-24T10:29:02.135Z,100712.97
2023-05-24T10:31:34.880Z,100711.31
2023-05-24T10:34:08.257Z,100715.09
2023-05-24T10:36:40.679Z,100712.84
2023-05-24T10:39:12.543Z,100713.66
2023-05-24T10:41:42.359Z,100712.66
2023-05-24T10:44:19.603Z,100712.41
2023-05-24T10:47:10.654Z,100704.47
2023-05-24T10:49:40.736Z,100705.53
2023-05-24T10:52:10.567Z,100710.47
2023-05-24T10:54:44.774Z,100700.34
2023-05-24T10:57:32.778Z,100702.25
2023-05-24T11:03:04.307Z,100699.00
2023-05-24T11:05:38.048Z,100704.56
2023-05-24T11:08:09.601Z,100695.06
2023-05-24T11:10:38.931Z,100693.00
2023-05-24T11:13:09.706Z,100696.63
2023-05-24T11:15:40.586Z,100693.75
2023-05-24T11:18:16.398Z,100687.66
2023-05-24T11:20:45.863Z,100690.19
2023-05-24T11:23:16.749Z,100685.31
2023-05-24T11:25:46.460Z,100687.16
2023-05-24T11:28:15.204Z,100681.91
2023-05-24T11:30:46.506Z,100678.16
2023-05-24T11:33:18.825Z,100669.47
2023-05-24T11:35:47.482Z,100674.34
2023-05-24T11:38:17.070Z,100671.44
2023-05-24T11:40:48.800Z,100664.00
2023-05-24T11:43:19.014Z,100666.91
2023-05-24T11:45:51.442Z,100657.59
2023-05-24T11:48:20.963Z,100665.72
2023-05-24T11:50:50.568Z,100666.75
2023-05-24T11:53:21.753Z,100653.59
2023-05-24T11:55:51.499Z,100652.81
2023-05-24T11:58:24.663Z,100650.38
2023-05-24T12:00:54.248Z,100646.22
2023-05-24T12:03:23.315Z,100644.63
2023-05-24T12:05:52.928Z,100640.75
2023-05-24T12:08:21.437Z,100643.59
2023-05-24T12:10:51.804Z,100635.44
2023-05-24T12:13:24.932Z,100637.78
2023-05-24T12:15:56.828Z,100634.19
2023-05-24T12:18:27.334Z,100638.38
2023-05-24T12:20:55.885Z,100638.13
2023-05-24T12:23:26.719Z,100642.00
2023-05-24T12:26:00.060Z,100634.50
2023-05-24T12:28:29.226Z,100628.69
2023-05-24T12:30:59.171Z,100626.03
2023-05-24T12:33:29.883Z,100617.06
2023-05-24T12:35:58.782Z,100616.88
2023-05-24T12:38:27.130Z,100615.63
2023-05-24T12:41:11.511Z,100616.75
2023-05-24T12:43:41.965Z,100614.69
2023-05-24T12:46:13.432Z,100608.47
2023-05-24T12:48:42.062Z,100598.75
2023-05-24T12:51:11.348Z,100607.69
2023-05-24T12:53:39.563Z,100608.13
2023-05-24T12:56:08.604Z,100607.44
2023-05-24T12:58:36.775Z,100612.69
2023-05-24T13:01:05.524Z,100594.97
2023-05-24T13:03:35.194Z,100605.00
2023-05-24T13:06:03.369Z,100600.31
2023-05-24T13:08:31.772Z,100595.81
2023-05-24T13:10:59.908Z,100592.06
2023-05-24T13:13:29.006Z,100592.13
2023-05-24T13:15:57.726Z,100596.19
2023-05-24T13:18:26.560Z,100591.09
2023-05-24T13:20:56.143Z,100591.66
2023-05-24T13:23:24.666Z,100590.75
2023-05-24T13:25:53.826Z,100595.19
2023-05-24T13:28:22.410Z,100584.38
2023-05-24T13:30:51.215Z,100582.50
2023-05-24T13:33:20.507Z,100576.97
2023-05-24T13:35:50.528Z,100583.56
2023-05-24T13:38:20.295Z,100581.53
2023-05-24T13:40:49.582Z,100580.38
2023-05-24T13:43:17.865Z,100578.88
2023-05-24T13:45:46.989Z,100571.94
2023-05-24T13:48:22.694Z,100574.59
2023-05-24T13:50:51.289Z,100577.22
2023-05-24T13:53:24.298Z,100573.34
2023-05-24T13:55:53.027Z,100567.16
2023-05-24T13:58:21.400Z,100575.81
2023-05-24T14:00:49.704Z,100571.25
2023-05-24T14:03:22.042Z,100571.66
2023-05-24T14:05:50.694Z,100564.84
2023-05-24T14:08:21.896Z,100574.13
2023-05-24T14:10:50.209Z,100568.28
2023-05-24T14:15:51.429Z,100569.53
2023-05-24T14:18:22.810Z,100564.53
2023-05-24T14:20:51.128Z,100572.16
2023-05-24T14:23:21.030Z,100580.63
2023-05-24T14:25:50.660Z,100563.84
2023-05-24T14:28:18.958Z,100569.13
2023-05-24T14:30:47.584Z,100568.91
2023-05-24T14:33:16.399Z,100567.47
2023-05-24T14:35:46.404Z,100561.88
2023-05-24T14:38:14.978Z,100572.28
2023-05-24T14:40:47.554Z,100559.25
2023-05-24T14:43:17.372Z,100563.31
2023-05-24T14:45:45.975Z,100559.16
2023-05-24T14:48:16.090Z,100552.63
2023-05-24T14:50:44.762Z,100556.72
2023-05-24T14:53:13.459Z,100553.66
2023-05-24T14:55:44.056Z,100544.81
2023-05-24T14:58:16.111Z,100546.13
2023-05-24T15:00:45.321Z,100543.38
2023-05-24T15:03:14.969Z,100545.00
2023-05-24T15:05:43.855Z,100542.84
2023-05-24T15:08:12.349Z,100553.03
2023-05-24T15:10:41.242Z,100545.09
2023-05-24T15:13:10.367Z,100541.31
2023-05-24T15:15:40.030Z,100537.59
2023-05-24T15:18:08.705Z,100536.56
2023-05-24T15:20:37.094Z,100529.28
2023-05-24T15:23:05.914Z,100536.47
2023-05-24T15:25:34.446Z,100530.25
2023-05-24T15:28:03.198Z,100520.28
2023-05-24T15:30:31.977Z,100514.75
2023-05-24T15:33:01.512Z,100514.25
2023-05-24T15:35:29.694Z,100515.00
2023-05-24T15:37:58.799Z,100509.50
2023-05-24T15:40:27.518Z,100503.41
2023-05-24T15:42:55.811Z,100511.16
2023-05-24T15:45:24.045Z,100506.13
2023-05-24T15:47:52.325Z,100504.44
2023-05-24T15:50:35.323Z,100491.88
2023-05-24T15:53:11.198Z,100504.94
2023-05-24T15:55:39.466Z,100504.50
2023-05-24T15:58:09.659Z,100503.00
2023-05-24T16:00:37.837Z,100501.41
2023-05-24T16:03:06.627Z,100499.19
2023-05-24T16:05:37.119Z,100499.34
2023-05-24T16:08:05.924Z,100493.38
2023-05-24T16:10:34.854Z,100494.06
2023-05-24T16:13:03.117Z,100491.34
2023-05-24T16:15:33.417Z,100495.78
2023-05-24T16:18:01.747Z,100484.81
2023-05-24T16:20:30.003Z,100485.47
2023-05-24T16:22:59.895Z,100479.53
2023-05-24T16:25:28.090Z,100480.19
2023-05-24T16:27:56.496Z,100481.09
2023-05-24T16:30:27.064Z,100482.06
2023-05-24T16:32:55.312Z,100478.00
2023-05-24T16:35:24.571Z,100483.50
2023-05-24T16:37:56.152Z,100480.91
2023-05-24T16:40:25.804Z,100480.56
2023-05-24T16:42:54.477Z,100485.44
2023-05-24T16:45:24.384Z,100484.81
2023-05-24T16:47:52.802Z,100477.50
2023-05-24T16:50:21.665Z,100471.94
2023-05-24T16:52:49.812Z,100479.09
2023-05-24T16:55:18.070Z,100475.31
2023-05-24T16:57:48.075Z,100471.53
2023-05-24T17:00:17.819Z,100465.97
2023-05-24T17:02:46.166Z,100481.22
2023-05-24T17:05:14.910Z,100468.63
2023-05-24T17:07:43.137Z,100468.44
2023-05-24T17:10:23.658Z,100467.16
2023-05-24T17:12:54.208Z,100471.31
2023-05-24T17:15:22.821Z,100467.16
2023-05-24T17:17:52.645Z,100464.38
2023-05-24T17:20:21.196Z,100466.94
2023-05-24T17:22:50.279Z,100459.72
2023-05-24T17:25:23.041Z,100463.84
2023-05-24T17:27:52.759Z,100465.69
2023-05-24T17:30:22.680Z,100459.69
2023-05-24T17:32:50.961Z,100464.03
2023-05-24T17:35:19.127Z,100459.88
2023-05-24T17:37:47.490Z,100464.47
2023-05-24T17:40:20.981Z,100455.66
2023-05-24T17:42:49.299Z,100462.19
2023-05-24T17:45:21.771Z,100457.44
2023-05-24T17:47:49.974Z,100454.81
2023-05-24T17:50:18.173Z,100458.38
2023-05-24T17:52:46.312Z,100457.25
2023-05-24T17:55:14.551Z,100459.19
2023-05-24T17:57:42.769Z,100456.47
2023-05-24T18:00:12.506Z,100456.88
2023-05-24T18:02:42.652Z,100465.44
2023-05-24T18:05:11.300Z,100454.03
2023-05-24T18:07:39.479Z,100457.50
2023-05-24T18:10:08.923Z,100460.41
2023-05-24T18:12:37.764Z,100462.06
2023-05-24T18:15:07.501Z,100469.22
2023-05-24T18:17:36.686Z,100458.84
2023-05-24T18:20:08.178Z,100456.59
2023-05-24T18:22:36.507Z,100461.72
2023-05-24T18:25:04.890Z,100463.94
2023-05-24T18:27:33.700Z,100462.94
2023-05-24T18:30:04.452Z,100473.63
2023-05-24T18:32:32.861Z,100468.22
2023-05-24T18:35:01.254Z,100478.81
2023-05-24T18:37:31.232Z,100471.75
2023-05-24T18:40:00.495Z,100467.63
2023-05-24T18:42:28.906Z,100470.72
2023-05-24T18:44:57.131Z,100477.94
2023-05-24T18:47:26.076Z,100481.31
2023-05-24T18:49:54.303Z,100489.28
2023-05-24T18:52:22.928Z,100487.63
2023-05-24T18:54:52.618Z,100495.59
2023-05-24T18:57:21.441Z,100508.31
2023-05-24T18:59:49.608Z,100497.44
2023-05-24T19:02:18.515Z,100503.63
2023-05-24T19:04:48.610Z,100505.72
2023-05-24T19:07:17.369Z,100506.66
2023-05-24T19:09:45.564Z,100514.34
2023-05-24T19:12:15.815Z,100520.44
2023-05-24T19:14:54.031Z,100523.47
2023-05-24T19:17:22.382Z,100521.31
2023-05-24T19:19:51.437Z,100524.34
2023-05-24T19:22:19.754Z,100526.25
2023-05-24T19:24:47.994Z,100528.44
2023-05-24T19:27:17.806Z,100528.13
2023-05-24T19:29:46.039Z,100530.31
2023-05-24T19:32:14.807Z,100539.56
2023-05-24T19:34:43.979Z,100537.09
2023-05-24T19:37:12.200Z,100533.00
2023-05-24T19:39:41.012Z,100538.94
2023-05-24T19:42:11.231Z,100548.69
2023-05-24T19:44:40.837Z,100548.66
2023-05-24T19:47:09.007Z,100549.44
2023-05-24T19:49:37.190Z,100548.06
2023-05-24T19:52:05.343Z,100544.19
2023-05-24T19:54:33.540Z,100554.75
2023-05-24T19:57:02.057Z,100558.81
2023-05-24T19:59:30.283Z,100559.84
2023-05-24T20:02:00.132Z,100554.56
2023-05-24T20:04:28.428Z,100563.22
2023-05-24T20:06:56.611Z,100558.00
2023-05-24T20:09:24.944Z,100565.28
2023-05-24T20:11:57.042Z,100566.88
2023-05-24T20:14:25.239Z,100566.28
2023-05-24T20:16:53.400Z,100565.09
2023-05-24T20:19:23.060Z,100575.63
2023-05-24T20:21:51.250Z,100570.41
2023-05-24T20:24:19.438Z,100583.63
2023-05-24T20:26:48.228Z,100572.16
2023-05-24T20:29:16.421Z,100581.06
2023-05-24T20:31:44.696Z,100578.28
2023-05-24T20:34:14.780Z,100577.09
2023-05-24T20:36:44.489Z,100576.50
2023-05-24T20:39:13.232Z,100579.88
2023-05-24T20:41:41.571Z,100574.69
2023-05-24T20:44:10.890Z,100579.47
2023-05-24T20:46:39.186Z,100572.34
2023-05-24T20:49:15.983Z,100574.75
2023-05-24T20:51:45.854Z,100571.94
2023-05-24T20:54:14.215Z,100565.66
2023-05-24T20:56:44.093Z,100568.31
2023-05-24T20:59:12.304Z,100569.91
2023-05-24T21:01:40.712Z,100573.84
2023-05-24T21:04:09.062Z,100571.06
2023-05-24T21:06:37.300Z,100572.78
2023-05-24T21:09:06.942Z,100566.41
2023-05-24T21:11:35.283Z,100570.13
2023-05-24T21:14:03.751Z,100570.28
2023-05-24T21:16:32.701Z,100571.03
2023-05-24T21:19:02.056Z,100565.53
2023-05-24T21:21:30.309Z,100567.59
2023-05-24T21:23:59.377Z,100570.47
2023-05-24T21:26:29.167Z,100567.19
2023-05-24T21:28:57.337Z,100565.78
2023-05-24T21:31:27.070Z,100565.47
2023-05-24T21:33:56.807Z,100576.22
2023-05-24T21:36:25.842Z,100577.19
2023-05-24T21:38:59.244Z,100583.03
2023-05-24T21:41:29.091Z,100583.09
2023-05-24T21:43:57.526Z,100581.81
2023-05-24T21:46:26.983Z,100577.13
2023-05-24T21:48:55.433Z,100586.56
2023-05-24T21:51:23.688Z,100574.81
2023-05-24T21:53:52.247Z,100573.16
2023-05-24T21:56:21.399Z,100582.38
2023-05-24T21:58:51.600Z,100586.63
2023-05-24T22:01:19.843Z,100588.16
2023-05-24T22:03:52.488Z,100593.22
2023-05-24T22:06:20.733Z,100598.31
2023-05-24T22:08:49.409Z,100605.84
2023-05-24T22:11:17.980Z,100603.03
2023-05-24T22:13:47.365Z,100611.13
2023-05-24T22:16:17.006Z,100611.38
2023-05-24T22:18:45.212Z,100609.50
2023-05-24T22:21:14.497Z,100611.13
2023-05-24T22:23:44.103Z,100605.13
2023-05-24T22:26:12.933Z,100601.38
2023-05-24T22:28:52.634Z,100612.69
2023-05-24T22:31:22.734Z,100613.16
2023-05-24T22:33:51.309Z,100613.88
2023-05-24T22:36:21.016Z,100611.41
2023-05-24T22:38:49.253Z,100612.00
2023-05-24T22:41:18.026Z,100624.69
2023-05-24T22:43:46.300Z,100621.41
2023-05-24T22:46:14.957Z,100620.56
2023-05-24T22:48:44.755Z,100620.56
2023-05-24T22:51:13.350Z,100622.69
2023-05-24T22:53:41.584Z,100610.22
2023-05-24T22:56:10.533Z,100612.16
2023-05-24T22:58:39.016Z,100608.50
2023-05-24T23:01:07.455Z,100608.75
2023-05-24T23:03:35.946Z,100607.31
2023-05-24T23:06:12.160Z,100608.97
2023-05-24T23:08:40.567Z,100611.91
2023-05-24T23:11:10.558Z,100608.97
2023-05-24T23:13:42.413Z,100606.28
2023-05-24T23:16:12.517Z,100607.31
2023-05-24T23:18:43.033Z,100618.97
2023-05-24T23:21:14.509Z,100611.31
2023-05-24T23:23:42.729Z,100613.13
2023-05-24T23:26:12.712Z,100623.34
2023-05-24T23:28:40.945Z,100626.28
2023-05-24T23:31:09.282Z,100625.69
2023-05-24T23:33:38.099Z,100629.44
2023-05-24T23:36:07.974Z,100613.47
2023-05-24T23:38:37.635Z,100617.25
2023-05-24T23:41:06.054Z,100613.97
2023-05-24T23:43:34.314Z,100612.09
2023-05-24T23:46:03.242Z,100619.94
2023-05-24T23:48:31.806Z,100610.19
2023-05-24T23:51:00.588Z,100600.69
2023-05-24T23:53:28.801Z,100610.91
2023-05-24T23:56:13.820Z,100607.59
2023-05-24T23:58:42.304Z,100606.19
